Sant Julià de Vilatorta





Hora UTC 07:55
Temperatura -0.1 ºC
Humitat 100.0 %
Pressió 1000.1 hPa
Pluja 0.0 mm
Velocitat vent 2.0 km/h
Direcció vent NE
Radiació solar 19.8 W/m²

Dades diàries 2019-11-15



Hora UTC (hivern +1h; estiu +2h)
Temperatura (ºC) Humitat (%) Pressió (hPa) Velocitat vent (km/h) Precipitació (mm) Radiació solar (W/m²)
Hora UTC Aire Humitat Pressió Vel. Dir. Vel. Max Dir. Intent. màx 5 min. Rad. Sol.
00:05 0.2 97.5 998.1 3.3 NNE 3.3 SE 0.0 0.0
00:10 0.1 97.6 998.1 2.9 NNE 6.0 ESE 0.0 0.0
00:15 0.1 97.6 998.1 2.9 NNE 6.0 ESE 0.0 0.0
00:20 0.0 97.8 998.2 2.8 NNE 5.5 SE 0.0 0.0
00:25 0.0 97.8 998.2 2.8 NNE 5.5 SE 0.0 0.0
00:30 0.0 97.9 998.2 3.6 NNE 7.3 ENE 0.0 0.0
00:35 0.0 97.9 998.2 3.6 NNE 7.3 ENE 0.0 0.0
00:40 -0.2 97.9 998.2 2.9 NNE 5.9 E 0.0 0.0
00:45 -0.2 97.9 998.2 2.9 NNE 5.9 E 0.0 0.0
00:50 -0.1 98.2 998.2 3.5 NNE 5.5 SSE 0.0 0.0
00:55 -0.1 98.2 998.2 3.5 NNE 5.5 SSE 0.0 0.0
01:00 -0.3 98.2 998.2 4.0 N 7.2 ENE 0.0 0.0
01:05 -0.3 98.2 998.2 4.0 N 7.2 ENE 0.0 0.0
01:10 -0.4 98.3 998.2 2.4 NE 5.2 ESE 0.0 0.0
01:15 -0.4 98.3 998.2 2.4 NE 5.2 ESE 0.0 0.0
01:20 -0.5 98.4 998.3 2.2 NNE 4.1 E 0.0 0.0
01:25 -0.5 98.4 998.3 2.2 NNE 4.1 E 0.0 0.0
01:30 -0.5 98.5 998.4 2.3 NNE 3.9 E 0.0 0.0
01:35 -0.5 98.5 998.4 2.3 NNE 3.9 E 0.0 0.0
01:40 -0.6 98.6 998.5 2.3 N 3.7 SE 0.0 0.0
01:45 -0.6 98.6 998.5 2.3 N 3.7 SE 0.0 0.0
01:50 -0.5 98.8 998.6 2.7 NNE 5.4 SSE 0.0 0.0
01:55 -0.5 98.8 998.6 2.7 NNE 5.4 SSE 0.0 0.0
02:00 -0.3 98.9 998.6 2.5 NNE 6.6 SSE 0.0 0.0
02:05 -0.3 98.9 998.6 2.5 NNE 6.6 SSE 0.0 0.0
02:10 -0.5 98.9 998.6 2.4 NNE 6.3 E 0.0 0.0
02:15 -0.5 98.9 998.6 2.4 NNE 6.3 E 0.0 0.0
02:20 -0.6 98.9 998.5 2.0 NNE 5.7 E 0.0 0.0
02:25 -0.6 98.9 998.5 2.0 NNE 5.7 E 0.0 0.0
02:30 -0.6 99.0 998.5 3.2 NNE 5.4 ESE 0.0 0.0
02:35 -0.6 99.0 998.5 3.2 NNE 5.4 ESE 0.0 0.0
02:40 -0.8 99.0 998.5 3.5 NE 6.6 ENE 0.0 0.3
02:45 -0.8 99.0 998.5 3.5 NE 6.6 ENE 0.0 0.3
02:50 -0.6 99.2 998.6 2.6 N 3.7 SSE 0.0 0.0
02:55 -0.6 99.2 998.6 2.6 N 3.7 SSE 0.0 0.0
03:00 -0.7 99.2 998.6 2.1 NNE 3.6 E 0.0 0.0
03:05 -0.7 99.2 998.6 2.1 NNE 3.6 E 0.0 0.0
03:10 -0.8 99.3 998.6 3.4 NNE 5.5 SSE 0.0 0.0
03:15 -0.8 99.3 998.6 3.4 NNE 5.5 SSE 0.0 0.0
03:20 -0.7 99.4 998.6 2.8 NNE 4.4 SE 0.0 0.0
03:25 -0.7 99.4 998.6 2.8 NNE 4.4 SE 0.0 0.0
03:30 -0.8 99.4 998.6 2.7 NNE 6.3 SSE 0.0 0.0
03:35 -0.8 99.4 998.6 2.7 NNE 6.3 SSE 0.0 0.0
03:40 -0.8 99.4 998.5 1.5 NNE 2.8 SSE 0.0 0.0
03:45 -0.8 99.4 998.5 1.5 NNE 2.8 SSE 0.0 0.0
03:50 -0.9 99.4 998.5 1.9 NE 3.7 SE 0.0 0.0
03:55 -0.9 99.4 998.5 1.9 NE 3.7 SE 0.0 0.0
04:00 -0.8 99.6 998.6 2.8 NNE 4.4 SSE 0.0 0.0
04:05 -0.8 99.6 998.6 2.8 NNE 4.4 SSE 0.0 0.0
04:10 -0.9 99.6 998.6 1.9 NNE 3.1 ESE 0.0 0.0
04:15 -0.9 99.6 998.6 1.9 NNE 3.1 ESE 0.0 0.0
04:20 -0.8 99.6 998.7 2.8 NNE 5.0 E 0.0 0.0
04:25 -0.8 99.6 998.7 2.8 NNE 5.0 E 0.0 0.0
04:30 -0.8 99.6 998.7 2.7 NNE 5.0 ESE 0.0 0.0
04:35 -0.8 99.6 998.7 2.7 NNE 5.0 ESE 0.0 0.0
04:40 -0.9 99.7 998.6 3.1 NNE 5.7 E 0.0 0.0
04:45 -0.9 99.7 998.6 3.1 NNE 5.7 E 0.0 0.0
04:50 -0.9 99.7 998.6 2.4 NE 4.5 E 0.0 0.0
04:55 -0.9 99.7 998.6 2.4 NE 4.5 E 0.0 0.0
05:00 -1.0 99.7 998.6 2.1 NE 3.3 E 0.0 0.0
05:05 -1.0 99.7 998.6 2.1 NE 3.3 E 0.0 0.0
05:10 -1.2 99.7 998.6 1.5 NNE 3.4 NNE 0.0 0.0
05:15 -1.2 99.7 998.6 1.5 NNE 3.4 NNE 0.0 0.0
05:20 -1.2 99.8 998.7 1.3 NE 3.2 NNE 0.0 0.2
05:25 -1.2 99.8 998.7 1.3 NE 3.2 NNE 0.0 0.2
05:30 -1.1 99.8 998.8 0.6 ENE 1.7 ENE 0.0 0.3
05:35 -1.1 99.8 998.8 0.6 ENE 1.7 ENE 0.0 0.3
05:40 -0.8 99.9 998.8 1.4 NE 2.8 SE 0.0 0.3
05:45 -0.8 99.9 998.8 1.4 NE 2.8 SE 0.0 0.3
05:50 -0.7 99.9 998.9 1.2 NE 2.4 ENE 0.0 0.3
05:55 -0.7 99.9 998.9 1.2 NE 2.4 ENE 0.0 0.3
06:00 -0.5 99.9 998.8 1.3 NE 3.6 NNE 0.0 0.0
06:05 -0.5 99.9 998.8 1.3 NE 3.6 NNE 0.0 0.0
06:10 -0.5 99.9 998.9 1.7 NNE 3.5 NW 0.0 0.0
06:15 -0.5 99.9 998.9 1.7 NNE 3.5 NW 0.0 0.0
06:20 -0.4 99.9 999.0 2.2 NNE 4.3 NW 0.0 0.0
06:25 -0.4 99.9 999.0 2.2 NNE 4.3 NW 0.0 0.0
06:30 -0.4 99.9 999.0 1.6 NNE 3.4 WNW 0.0 0.1
06:35 -0.4 99.9 999.0 1.6 NNE 3.4 WNW 0.0 0.1
06:40 -0.4 100.0 999.0 0.8 NE 1.5 N 0.0 0.6
06:45 -0.4 100.0 999.0 0.8 NE 1.5 N 0.0 0.6
06:50 -0.4 100.0 999.1 1.2 NE 2.7 NNW 0.0 2.0
06:55 -0.4 100.0 999.1 1.2 NE 2.7 NNW 0.0 2.0
07:00 -0.4 100.0 999.2 2.0 NE 4.6 WNW 0.0 4.4
07:05 -0.4 100.0 999.2 2.0 NE 4.6 WNW 0.0 4.4
07:10 -0.4 100.0 999.4 1.6 ENE 3.7 S 0.0 6.9
07:15 -0.4 100.0 999.4 1.6 ENE 3.7 S 0.0 6.9
07:20 -0.2 100.0 999.6 3.2 NNE 6.0 SSE 0.0 10.4
07:25 -0.2 100.0 999.6 3.2 NNE 6.0 SSE 0.0 10.4
07:30 -0.2 100.0 999.7 1.6 NE 4.2 SSE 0.0 15.5
07:35 -0.2 100.0 999.7 1.6 NE 4.2 SSE 0.0 15.5
07:40 -0.2 100.0 999.9 1.0 NE 3.2 SW 0.0 17.2
07:45 -0.2 100.0 999.9 1.0 NE 3.2 SW 0.0 17.2
07:50 -0.1 100.0 1000.1 2.0 NE 3.9 SW 0.0 19.8
07:55 -0.1 100.0 1000.1 2.0 NE 3.9 SW 0.0 19.8
Màxima 0.2 100.0 1000.1 4.0 N 7.3 ENE 0.0 19.8
Mínima -1.3 97.5 998.1
Total 0.0